Time;durP1;ratioP1;P1;durP2;ratioP2;P2;SDS_P1;SDS_P2;PMS_P1;PMS_P2;Temp;Humidity;BMP_temperature;BMP_pressure;BME280_temperature;BME280_humidity;BME280_pressure;Samples;Min_cycle;Max_cycle;Signal;HPM_P1;HPM_P2
2021/12/18 00:00:48;;;;;;;17.13;8.50;;;4.10;99.90;;;;;;4972990;28;20023;-74
2021/12/18 00:03:14;;;;;;;16.30;7.85;;;4.10;99.90;;;;;;4973462;28;20042;-73
2021/12/18 00:05:41;;;;;;;13.48;6.95;;;4.10;99.90;;;;;;4973415;28;20026;-74
2021/12/18 00:08:07;;;;;;;14.30;8.30;;;4.10;99.90;;;;;;4973007;28;20047;-74
2021/12/18 00:10:33;;;;;;;17.20;7.50;;;4.00;99.90;;;;;;4973473;28;20446;-73
2021/12/18 00:13:00;;;;;;;16.77;8.30;;;4.00;99.90;;;;;;4973277;28;20035;-74
2021/12/18 00:15:27;;;;;;;15.52;7.90;;;4.00;99.90;;;;;;4973426;28;20033;-73
2021/12/18 00:17:53;;;;;;;17.10;8.40;;;4.00;99.90;;;;;;4973454;28;20102;-73
2021/12/18 00:20:19;;;;;;;16.17;9.18;;;3.90;99.90;;;;;;4973216;28;20027;-73
2021/12/18 00:22:46;;;;;;;14.15;7.82;;;4.00;99.90;;;;;;4973296;28;20070;-73
2021/12/18 00:25:12;;;;;;;16.77;9.27;;;3.90;99.90;;;;;;4973352;28;20031;-73
2021/12/18 00:27:39;;;;;;;18.45;9.57;;;3.90;99.90;;;;;;4972896;28;20110;-73
2021/12/18 00:30:06;;;;;;;17.92;8.23;;;3.90;99.90;;;;;;5004305;28;20121;-74
2021/12/18 00:32:32;;;;;;;15.05;8.23;;;3.80;99.90;;;;;;4973263;28;20039;-73
2021/12/18 00:34:58;;;;;;;18.45;9.88;;;3.90;99.90;;;;;;4973142;28;20034;-73
2021/12/18 00:37:24;;;;;;;16.90;8.25;;;3.80;99.90;;;;;;4972996;28;20027;-73
2021/12/18 00:40:00;;;;;;;20.73;8.98;;;3.80;99.90;;;;;;4973229;28;20077;-74
2021/12/18 00:42:50;;;;;;;17.88;9.82;;;3.80;99.90;;;;;;4973200;28;20521;-74
2021/12/18 00:45:18;;;;;;;21.33;9.35;;;3.80;99.90;;;;;;4972993;28;20509;-74
2021/12/18 00:47:45;;;;;;;19.73;9.13;;;3.70;99.90;;;;;;4973128;28;20467;-73
2021/12/18 00:50:18;;;;;;;19.35;8.32;;;3.70;99.90;;;;;;4973173;28;20041;-74
2021/12/18 00:52:44;;;;;;;19.13;9.73;;;3.70;99.90;;;;;;4973229;28;20035;-74
2021/12/18 00:55:10;;;;;;;21.50;10.77;;;3.70;99.90;;;;;;4973123;28;20528;-73
2021/12/18 00:57:37;;;;;;;23.40;9.52;;;3.70;99.90;;;;;;4973117;28;20035;-74
2021/12/18 01:00:08;;;;;;;18.52;8.57;;;3.70;99.90;;;;;;4973112;28;20022;-74
2021/12/18 01:02:36;;;;;;;17.20;8.52;;;3.70;99.90;;;;;;4972827;28;20035;-74
2021/12/18 01:05:05;;;;;;;17.58;8.70;;;3.70;99.90;;;;;;4973084;28;20027;-74
2021/12/18 01:07:30;;;;;;;16.88;8.23;;;3.70;99.90;;;;;;4972724;28;20095;-73
2021/12/18 01:12:31;;;;;;;18.63;10.15;;;3.70;99.90;;;;;;4972867;28;20034;-74
2021/12/18 01:22:45;;;;;;;18.75;9.95;;;3.80;99.90;;;;;;4972929;28;20130;-75
2021/12/18 01:25:11;;;;;;;21.95;10.82;;;3.80;99.90;;;;;;4976414;28;20031;-74
2021/12/18 01:27:37;;;;;;;17.48;9.73;;;3.80;99.90;;;;;;4976543;28;20105;-74
2021/12/18 01:30:06;;;;;;;19.60;9.68;;;3.80;99.90;;;;;;4976312;28;20119;-75
2021/12/18 01:32:32;;;;;;;24.23;11.25;;;3.80;99.90;;;;;;4976342;28;20106;-74
2021/12/18 01:34:58;;;;;;;24.88;11.63;;;3.80;99.90;;;;;;4976471;28;20109;-74
2021/12/18 01:37:24;;;;;;;20.70;9.85;;;3.80;99.90;;;;;;4976343;28;20034;-74
2021/12/18 01:39:52;;;;;;;22.30;9.55;;;3.70;99.90;;;;;;4976289;28;20082;-74
2021/12/18 01:53:04;;;;;;;18.17;9.30;;;3.60;99.90;;;;;;4975836;28;20030;-74
2021/12/18 01:55:33;;;;;;;18.42;9.75;;;3.60;99.90;;;;;;4976283;28;20027;-74
2021/12/18 01:57:59;;;;;;;19.48;10.68;;;3.60;99.90;;;;;;4975514;28;20034;-74
2021/12/18 02:00:31;;;;;;;17.35;9.27;;;3.60;99.90;;;;;;4995247;28;20113;-75
2021/12/18 02:02:57;;;;;;;20.65;10.57;;;3.60;99.90;;;;;;4995232;28;20114;-75
2021/12/18 02:05:23;;;;;;;21.33;9.43;;;3.50;99.90;;;;;;4995321;28;20026;-73
2021/12/18 02:07:49;;;;;;;16.77;8.82;;;3.50;99.90;;;;;;4994843;28;20054;-74
2021/12/18 02:10:25;;;;;;;19.17;10.57;;;3.50;99.90;;;;;;4995286;28;20056;-74
2021/12/18 02:13:09;;;;;;;18.10;10.75;;;3.60;99.90;;;;;;4994951;28;20117;-74
2021/12/18 02:21:12;;;;;;;21.42;10.73;;;3.50;99.90;;;;;;4995084;28;20072;-74
2021/12/18 02:23:39;;;;;;;20.10;10.43;;;3.50;99.90;;;;;;4994863;28;20042;-74
2021/12/18 02:26:05;;;;;;;17.95;9.15;;;3.60;99.90;;;;;;4994952;28;20555;-74
2021/12/18 02:28:31;;;;;;;16.60;9.65;;;3.50;99.90;;;;;;4994665;28;20026;-73
2021/12/18 02:30:58;;;;;;;18.30;10.00;;;3.60;99.90;;;;;;4994698;28;20027;-73
2021/12/18 02:33:26;;;;;;;21.02;10.15;;;3.60;99.90;;;;;;4994843;28;20050;-73
2021/12/18 02:35:55;;;;;;;25.65;9.95;;;3.60;99.90;;;;;;4993072;28;20030;-73
2021/12/18 02:38:30;;;;;;;23.27;10.57;;;3.50;99.90;;;;;;4994346;28;20509;-74
2021/12/18 02:43:32;;;;;;;18.83;9.48;;;3.60;99.90;;;;;;4994567;28;20034;-74
2021/12/18 02:46:06;;;;;;;20.85;10.10;;;3.60;99.90;;;;;;4994639;28;20023;-75
2021/12/18 02:48:35;;;;;;;18.52;9.82;;;3.60;99.90;;;;;;4994549;28;20027;-74
2021/12/18 02:51:03;;;;;;;18.50;9.40;;;3.50;99.90;;;;;;4993921;28;20042;-74
2021/12/18 02:53:29;;;;;;;19.98;9.95;;;3.60;99.90;;;;;;4993584;28;20026;-74
2021/12/18 02:56:06;;;;;;;21.08;9.32;;;3.60;99.90;;;;;;4992981;28;20449;-73
2021/12/18 02:58:40;;;;;;;17.30;9.10;;;3.50;99.90;;;;;;4991970;28;20227;-73
2021/12/18 03:01:10;;;;;;;22.55;9.32;;;3.50;99.90;;;;;;4992967;28;20030;-73
2021/12/18 03:03:39;;;;;;;17.95;9.02;;;3.50;99.90;;;;;;4994187;28;20031;-71
2021/12/18 03:06:21;;;;;;;17.65;10.30;;;3.50;99.90;;;;;;4992391;28;20027;-72
2021/12/18 03:27:22;;;;;;;20.88;9.50;;;3.50;99.90;;;;;;4980814;28;20033;-74
2021/12/18 03:29:48;;;;;;;18.05;9.32;;;3.50;99.90;;;;;;4975865;28;20099;-73
2021/12/18 03:32:15;;;;;;;18.80;8.82;;;3.50;99.90;;;;;;4993186;28;20412;-73
2021/12/18 03:34:41;;;;;;;19.13;9.90;;;3.50;99.90;;;;;;4993131;28;20093;-74
2021/12/18 03:37:07;;;;;;;16.90;8.82;;;3.50;99.90;;;;;;4991779;28;20040;-74
2021/12/18 03:39:33;;;;;;;16.38;8.93;;;3.50;99.90;;;;;;4991366;28;20485;-74
2021/12/18 03:41:58;;;;;;;18.80;8.57;;;3.50;99.90;;;;;;4993377;28;20084;-75
2021/12/18 03:44:24;;;;;;;16.17;8.60;;;3.50;99.90;;;;;;4992290;28;20054;-74
2021/12/18 03:46:51;;;;;;;19.88;9.55;;;3.50;99.90;;;;;;4991097;28;20018;-74
2021/12/18 03:49:17;;;;;;;18.67;9.57;;;3.50;99.90;;;;;;4991302;28;20030;-74
2021/12/18 03:51:43;;;;;;;19.52;9.20;;;3.50;99.90;;;;;;4991694;28;20022;-73
2021/12/18 03:54:09;;;;;;;21.88;10.15;;;3.50;99.90;;;;;;4991979;28;20050;-73
2021/12/18 03:56:35;;;;;;;18.42;9.05;;;3.50;99.90;;;;;;4992117;28;20847;-73
2021/12/18 03:59:01;;;;;;;23.65;9.80;;;3.40;99.90;;;;;;4991840;28;20452;-74
2021/12/18 04:01:27;;;;;;;14.93;7.65;;;3.40;99.90;;;;;;4990527;28;20072;-74
2021/12/18 04:03:53;;;;;;;17.88;8.73;;;3.40;99.90;;;;;;4991405;28;20042;-74
2021/12/18 04:06:20;;;;;;;17.73;9.00;;;3.40;99.90;;;;;;4991618;28;20101;-73
2021/12/18 04:08:46;;;;;;;18.00;9.23;;;3.40;99.90;;;;;;4989881;28;20452;-74
2021/12/18 04:11:12;;;;;;;17.80;9.30;;;3.40;99.90;;;;;;4992804;28;20073;-74
2021/12/18 04:13:43;;;;;;;16.45;9.63;;;3.30;99.90;;;;;;4992840;28;20018;-75
2021/12/18 04:16:09;;;;;;;19.08;8.80;;;3.30;99.90;;;;;;4990798;28;20057;-74
2021/12/18 04:18:35;;;;;;;16.85;9.32;;;3.30;99.90;;;;;;4992567;28;20027;-74
2021/12/18 04:21:01;;;;;;;22.58;9.93;;;3.30;99.90;;;;;;4992680;28;20033;-74
2021/12/18 04:23:27;;;;;;;16.55;8.88;;;3.40;99.90;;;;;;4992412;28;20066;-74
2021/12/18 04:25:55;;;;;;;14.60;7.95;;;3.30;99.90;;;;;;4992659;28;20084;-74
2021/12/18 04:28:21;;;;;;;19.08;9.00;;;3.30;99.90;;;;;;4992468;28;20526;-74
2021/12/18 04:30:47;;;;;;;17.58;8.18;;;3.30;99.90;;;;;;4992915;28;20113;-75
2021/12/18 04:33:14;;;;;;;18.48;7.88;;;3.30;99.90;;;;;;4992480;28;20046;-74
2021/12/18 04:35:40;;;;;;;16.55;8.73;;;3.20;99.90;;;;;;4992395;28;20029;-73
2021/12/18 04:38:06;;;;;;;17.95;9.50;;;3.20;99.90;;;;;;4992242;28;20062;-74
2021/12/18 04:40:32;;;;;;;18.23;8.90;;;3.20;99.90;;;;;;4988463;28;20030;-74
2021/12/18 04:42:58;;;;;;;18.48;9.23;;;3.20;99.90;;;;;;4973024;28;20039;-74
2021/12/18 04:45:24;;;;;;;17.67;8.70;;;3.20;99.90;;;;;;4972832;28;20031;-74
2021/12/18 04:47:50;;;;;;;19.25;8.65;;;3.20;99.90;;;;;;4973007;28;20031;-74
2021/12/18 04:50:16;;;;;;;15.30;8.10;;;3.10;99.90;;;;;;4973131;28;20085;-74
2021/12/18 04:52:42;;;;;;;16.95;8.18;;;3.10;99.90;;;;;;4972828;28;20038;-74
2021/12/18 04:55:09;;;;;;;15.63;8.05;;;3.10;99.90;;;;;;4973087;28;20019;-74
2021/12/18 04:57:34;;;;;;;18.45;8.38;;;3.00;99.90;;;;;;4974224;28;20468;-73
2021/12/18 05:00:01;;;;;;;17.23;8.82;;;3.10;99.90;;;;;;4976980;28;20743;-74
2021/12/18 05:02:36;;;;;;;17.23;8.27;;;3.00;99.90;;;;;;4995286;28;20050;-74
2021/12/18 05:05:03;;;;;;;15.75;8.35;;;3.00;99.90;;;;;;4995522;28;20034;-74
2021/12/18 05:07:29;;;;;;;19.15;8.63;;;3.00;99.90;;;;;;4995807;28;20026;-74
2021/12/18 05:09:55;;;;;;;17.08;8.07;;;3.00;99.90;;;;;;4995841;28;20027;-74
2021/12/18 05:12:21;;;;;;;17.50;8.90;;;2.90;99.90;;;;;;4996005;28;20499;-74
2021/12/18 05:14:47;;;;;;;17.73;8.75;;;2.90;99.90;;;;;;4996089;28;20416;-74
2021/12/18 05:17:13;;;;;;;19.23;10.05;;;2.90;99.90;;;;;;4996162;28;20018;-74
2021/12/18 05:19:38;;;;;;;25.55;10.60;;;3.00;99.90;;;;;;4996094;28;20492;-73
2021/12/18 05:22:05;;;;;;;20.42;11.85;;;3.00;99.90;;;;;;4995951;28;20042;-72
2021/12/18 05:24:31;;;;;;;19.90;9.88;;;2.90;99.90;;;;;;4996115;28;20026;-75
2021/12/18 05:26:58;;;;;;;18.50;8.88;;;2.90;99.90;;;;;;4995894;28;20480;-75
2021/12/18 05:29:24;;;;;;;19.40;8.75;;;2.90;99.90;;;;;;4995792;28;20022;-74
2021/12/18 05:31:50;;;;;;;18.60;9.75;;;2.80;99.90;;;;;;4996174;28;20030;-75
2021/12/18 05:34:22;;;;;;;22.52;10.23;;;2.80;99.90;;;;;;4995260;28;20093;-75
2021/12/18 05:39:27;;;;;;;22.23;11.25;;;2.90;99.90;;;;;;4995576;28;20038;-76
2021/12/18 05:41:54;;;;;;;31.30;18.63;;;2.90;99.90;;;;;;4995585;28;20109;-76
2021/12/18 05:44:25;;;;;;;61.38;33.47;;;2.90;99.90;;;;;;4995610;28;20030;-75
2021/12/18 05:46:52;;;;;;;57.85;31.30;;;2.90;99.90;;;;;;4995384;28;20092;-75
2021/12/18 05:49:18;;;;;;;82.93;43.60;;;2.90;99.90;;;;;;4994961;28;20042;-74
2021/12/18 05:51:45;;;;;;;62.55;34.90;;;2.80;99.90;;;;;;4995241;28;20098;-75
2021/12/18 05:54:12;;;;;;;71.82;39.38;;;2.90;99.90;;;;;;4995262;28;20511;-75
2021/12/18 05:56:39;;;;;;;60.50;33.13;;;2.80;99.90;;;;;;4995029;28;20023;-75
2021/12/18 05:59:05;;;;;;;31.95;17.40;;;2.90;99.90;;;;;;4995110;28;20549;-73
2021/12/18 06:01:31;;;;;;;25.35;14.18;;;2.80;99.90;;;;;;4994970;28;20022;-75
2021/12/18 06:03:57;;;;;;;26.25;13.88;;;2.80;99.90;;;;;;4994713;28;20117;-75
2021/12/18 06:06:23;;;;;;;25.33;13.85;;;2.90;99.90;;;;;;4995080;28;20113;-75
2021/12/18 06:08:50;;;;;;;28.17;14.18;;;2.90;99.90;;;;;;4993826;28;20054;-74
2021/12/18 06:11:19;;;;;;;27.25;12.90;;;2.80;99.90;;;;;;4994649;28;20070;-74
2021/12/18 06:13:48;;;;;;;24.55;12.50;;;2.90;99.90;;;;;;4994824;28;20081;-74
2021/12/18 06:16:15;;;;;;;21.90;11.85;;;2.80;99.90;;;;;;4994436;28;20026;-74
2021/12/18 06:18:46;;;;;;;26.20;11.43;;;2.80;99.90;;;;;;4993871;28;20034;-76
2021/12/18 06:21:14;;;;;;;22.92;11.60;;;2.90;99.90;;;;;;4994595;28;20564;-74
2021/12/18 06:23:43;;;;;;;26.85;12.38;;;2.80;99.90;;;;;;4995011;28;20432;-74
2021/12/18 06:26:09;;;;;;;23.10;13.20;;;2.80;99.90;;;;;;4994401;28;20022;-73
2021/12/18 06:28:35;;;;;;;29.70;14.82;;;2.90;99.90;;;;;;4994257;28;20030;-73
2021/12/18 06:31:02;;;;;;;28.52;14.73;;;2.80;99.90;;;;;;4994543;28;20393;-74
2021/12/18 06:33:28;;;;;;;21.60;11.38;;;2.90;99.90;;;;;;4994411;28;20065;-74
2021/12/18 06:35:55;;;;;;;27.35;12.90;;;2.80;99.90;;;;;;4994283;28;20031;-76
2021/12/18 06:38:21;;;;;;;23.08;12.45;;;2.90;99.90;;;;;;4993666;28;20102;-72
2021/12/18 06:40:47;;;;;;;21.65;12.13;;;2.80;99.90;;;;;;4993982;28;20033;-73
2021/12/18 06:43:13;;;;;;;22.50;12.93;;;2.80;99.90;;;;;;4991061;28;20034;-73
2021/12/18 06:45:39;;;;;;;19.55;10.70;;;2.80;99.90;;;;;;4992744;28;20393;-73
2021/12/18 06:48:05;;;;;;;19.30;11.70;;;2.80;99.90;;;;;;4990743;28;20034;-74
2021/12/18 06:50:33;;;;;;;22.70;11.93;;;2.90;99.90;;;;;;4981615;28;20033;-73
2021/12/18 06:52:59;;;;;;;21.10;11.57;;;2.80;99.90;;;;;;4993355;28;20112;-71
2021/12/18 06:55:24;;;;;;;26.23;12.75;;;2.80;99.90;;;;;;4993592;28;20046;-73
2021/12/18 06:57:50;;;;;;;23.63;11.88;;;2.80;99.90;;;;;;4993538;28;20037;-72
2021/12/18 07:00:17;;;;;;;20.30;11.55;;;2.80;99.90;;;;;;4993814;28;20026;-73
2021/12/18 07:02:43;;;;;;;25.42;12.45;;;2.80;99.90;;;;;;4990387;28;20034;-74
2021/12/18 07:05:10;;;;;;;29.40;15.30;;;2.80;99.90;;;;;;4991675;28;20090;-73
2021/12/18 07:07:36;;;;;;;29.13;17.17;;;2.80;99.90;;;;;;4993093;28;20370;-72
2021/12/18 07:10:08;;;;;;;28.95;17.30;;;2.90;99.90;;;;;;4989044;28;20027;-71
2021/12/18 07:12:34;;;;;;;29.88;16.73;;;2.90;99.90;;;;;;4990885;28;20551;-72
2021/12/18 07:15:01;;;;;;;27.52;13.77;;;2.90;99.90;;;;;;4985910;28;20048;-72
2021/12/18 07:17:27;;;;;;;25.92;14.02;;;2.90;99.90;;;;;;4992880;28;20034;-73
2021/12/18 07:19:53;;;;;;;25.50;14.07;;;2.90;99.90;;;;;;4992949;28;20105;-72
2021/12/18 07:22:19;;;;;;;29.50;17.60;;;2.90;99.90;;;;;;4991847;28;20034;-74
2021/12/18 07:24:45;;;;;;;27.45;16.50;;;3.00;99.90;;;;;;4992354;28;20029;-78
2021/12/18 07:27:11;;;;;;;26.17;15.73;;;2.90;99.90;;;;;;4993358;28;20042;-73
2021/12/18 07:29:36;;;;;;;26.48;15.25;;;2.90;99.90;;;;;;4993006;28;20117;-74
2021/12/18 07:32:03;;;;;;;31.38;17.33;;;3.00;99.90;;;;;;4992445;28;20548;-73
2021/12/18 07:34:29;;;;;;;31.17;17.45;;;3.00;99.90;;;;;;4988254;28;20531;-73
2021/12/18 07:36:54;;;;;;;32.50;19.30;;;3.00;99.90;;;;;;4992765;28;20109;-72
2021/12/18 07:39:20;;;;;;;31.55;18.60;;;3.10;99.90;;;;;;4978560;28;20034;-72
2021/12/18 07:41:46;;;;;;;29.88;18.58;;;3.10;99.90;;;;;;4989395;28;20086;-71
2021/12/18 07:44:12;;;;;;;37.60;19.33;;;3.20;99.90;;;;;;4991182;28;20030;-73
2021/12/18 07:46:38;;;;;;;30.90;20.30;;;3.30;99.90;;;;;;4990932;28;20026;-74
2021/12/18 07:49:06;;;;;;;35.47;19.30;;;3.30;99.90;;;;;;4992525;28;20031;-72
2021/12/18 07:51:32;;;;;;;30.50;16.98;;;3.40;99.90;;;;;;4977055;28;20034;-74
2021/12/18 07:53:59;;;;;;;25.33;15.05;;;3.40;99.90;;;;;;4992197;28;20472;-72
2021/12/18 07:56:25;;;;;;;24.17;15.00;;;3.40;99.90;;;;;;4985561;28;20026;-70
2021/12/18 07:58:53;;;;;;;23.10;15.00;;;3.40;99.90;;;;;;4983696;28;20038;-70
2021/12/18 08:01:19;;;;;;;30.38;15.55;;;3.40;99.90;;;;;;4992429;28;20025;-70
2021/12/18 08:03:45;;;;;;;27.40;15.63;;;3.40;99.90;;;;;;4987548;28;20116;-72
2021/12/18 08:06:11;;;;;;;26.42;14.98;;;3.50;99.90;;;;;;4991722;28;20058;-73
2021/12/18 08:08:37;;;;;;;29.58;16.65;;;3.50;99.90;;;;;;4987957;28;20050;-73
2021/12/18 08:11:04;;;;;;;35.33;18.75;;;3.50;99.90;;;;;;4991926;28;20034;-71
2021/12/18 08:13:30;;;;;;;29.20;17.95;;;3.50;99.90;;;;;;4991396;28;20099;-73
2021/12/18 08:15:56;;;;;;;32.53;18.80;;;3.50;99.90;;;;;;4989128;28;20445;-73
2021/12/18 08:18:22;;;;;;;23.73;14.80;;;3.50;99.90;;;;;;4987770;28;20058;-74
2021/12/18 08:20:47;;;;;;;25.75;15.90;;;3.50;99.90;;;;;;4981812;28;20101;-76
2021/12/18 08:23:13;;;;;;;29.27;17.52;;;3.60;99.90;;;;;;4988018;28;20030;-72
2021/12/18 08:25:40;;;;;;;46.28;19.83;;;3.70;99.90;;;;;;4989564;28;20049;-73
2021/12/18 08:28:06;;;;;;;31.75;18.40;;;3.90;99.90;;;;;;4988186;28;20030;-75
2021/12/18 08:30:34;;;;;;;31.80;18.70;;;4.10;99.90;;;;;;4980690;28;20022;-73
2021/12/18 08:33:01;;;;;;;31.35;18.17;;;4.30;99.90;;;;;;4991618;28;20101;-72
2021/12/18 08:35:28;;;;;;;41.65;17.98;;;4.60;99.90;;;;;;4990883;28;20400;-72
2021/12/18 08:37:55;;;;;;;24.52;11.35;;;4.90;99.90;;;;;;4992209;28;20053;-72
2021/12/18 08:40:22;;;;;;;28.90;15.18;;;5.10;99.90;;;;;;4992241;28;20455;-73
2021/12/18 08:42:48;;;;;;;21.98;12.82;;;5.20;99.90;;;;;;4991301;28;20065;-72
2021/12/18 08:45:14;;;;;;;21.95;10.85;;;5.30;99.90;;;;;;4990028;28;20062;-72
2021/12/18 08:47:41;;;;;;;24.60;11.63;;;5.40;99.90;;;;;;4991926;28;20065;-72
2021/12/18 08:50:10;;;;;;;21.00;12.32;;;5.40;99.90;;;;;;4992030;28;20105;-72
2021/12/18 08:52:37;;;;;;;25.88;12.68;;;5.40;99.90;;;;;;4992191;28;20026;-72
2021/12/18 08:55:04;;;;;;;26.23;13.10;;;5.40;99.90;;;;;;4991601;28;20038;-73
2021/12/18 08:57:30;;;;;;;24.15;13.70;;;5.40;99.90;;;;;;4989628;28;20061;-72
2021/12/18 08:59:56;;;;;;;25.13;14.40;;;5.60;99.90;;;;;;4987891;28;20058;-73
2021/12/18 09:02:22;;;;;;;19.88;9.43;;;5.50;99.90;;;;;;4982623;28;20045;-72
2021/12/18 09:04:48;;;;;;;15.45;8.27;;;5.40;99.90;;;;;;4987613;28;20472;-72
2021/12/18 09:07:15;;;;;;;19.10;9.45;;;5.40;99.90;;;;;;4977813;28;20058;-71
2021/12/18 09:09:41;;;;;;;17.95;9.65;;;5.50;99.90;;;;;;4980631;28;20109;-72
2021/12/18 09:12:09;;;;;;;19.63;9.65;;;5.60;99.90;;;;;;4991211;28;20477;-70
2021/12/18 09:14:35;;;;;;;19.48;8.68;;;5.80;99.90;;;;;;4990856;28;20464;-70
2021/12/18 09:17:01;;;;;;;18.75;10.40;;;5.80;99.90;;;;;;4990246;28;20022;-73
2021/12/18 09:19:27;;;;;;;17.85;9.30;;;5.90;99.90;;;;;;4991338;28;20034;-76
2021/12/18 09:21:52;;;;;;;18.85;8.70;;;5.90;99.90;;;;;;4989687;28;20026;-74
2021/12/18 09:24:20;;;;;;;21.23;10.40;;;5.80;99.90;;;;;;4988991;28;20034;-71
2021/12/18 09:26:47;;;;;;;27.63;12.93;;;5.60;99.90;;;;;;4989841;28;20026;-73
2021/12/18 09:29:14;;;;;;;24.08;11.43;;;5.50;99.90;;;;;;4976845;28;20057;-72
2021/12/18 09:31:39;;;;;;;33.58;15.57;;;5.40;99.90;;;;;;4991898;28;20033;-72
2021/12/18 09:34:05;;;;;;;22.67;12.23;;;5.20;99.90;;;;;;4991604;28;20022;-72
2021/12/18 09:36:31;;;;;;;23.15;12.45;;;5.20;99.90;;;;;;4991264;28;20392;-72
2021/12/18 09:38:58;;;;;;;19.75;10.07;;;5.10;99.90;;;;;;4991082;28;20030;-71
2021/12/18 09:41:24;;;;;;;23.70;10.98;;;5.10;99.90;;;;;;4992098;28;20126;-72
2021/12/18 09:43:50;;;;;;;21.50;8.90;;;5.10;99.90;;;;;;4991665;28;20527;-71
2021/12/18 09:46:17;;;;;;;17.65;10.30;;;5.10;99.90;;;;;;4995141;28;20025;-71
2021/12/18 09:48:44;;;;;;;16.55;8.93;;;5.10;99.90;;;;;;4995145;28;20109;-72
2021/12/18 09:51:22;;;;;;;20.15;11.20;;;5.00;99.90;;;;;;4994987;28;20025;-71
2021/12/18 09:53:50;;;;;;;18.67;9.23;;;5.10;99.90;;;;;;4994485;28;20065;-70
2021/12/18 09:56:16;;;;;;;20.50;10.13;;;5.20;99.90;;;;;;4994971;28;20125;-70
2021/12/18 09:58:42;;;;;;;22.13;12.20;;;5.20;99.90;;;;;;4993899;28;20527;-69
2021/12/18 10:01:08;;;;;;;24.38;11.52;;;5.30;99.90;;;;;;4975750;28;20026;-70
2021/12/18 10:03:44;;;;;;;22.80;11.82;;;5.30;99.90;;;;;;4975284;28;20046;-70
2021/12/18 10:06:42;;;;;;;22.20;11.85;;;5.30;99.90;;;;;;4975483;28;20162;-70
2021/12/18 10:09:17;;;;;;;28.27;13.82;;;5.30;99.90;;;;;;4980357;28;20476;-70
2021/12/18 10:11:53;;;;;;;24.77;15.48;;;5.30;99.90;;;;;;4985543;28;20511;-69
2021/12/18 10:14:35;;;;;;;27.85;16.17;;;5.30;99.90;;;;;;4994814;28;20045;-70
2021/12/18 10:17:01;;;;;;;30.38;18.00;;;5.30;99.90;;;;;;4975469;28;20031;-71
2021/12/18 10:19:28;;;;;;;28.13;15.32;;;5.40;99.90;;;;;;4990099;28;20029;-69
2021/12/18 10:22:00;;;;;;;29.92;11.60;;;5.40;99.90;;;;;;4994229;28;20092;-69
2021/12/18 10:24:27;;;;;;;26.08;12.95;;;5.40;99.90;;;;;;4994575;28;20034;-71
2021/12/18 10:26:53;;;;;;;23.88;12.07;;;5.30;99.90;;;;;;4994530;28;20030;-70
2021/12/18 10:29:36;;;;;;;18.42;10.88;;;5.30;99.90;;;;;;4994534;28;20052;-70
2021/12/18 10:32:09;;;;;;;22.92;12.82;;;5.30;99.90;;;;;;4994772;28;20101;-70
2021/12/18 10:34:36;;;;;;;22.60;12.18;;;5.40;99.90;;;;;;4994707;28;20048;-70
2021/12/18 10:37:16;;;;;;;24.92;13.57;;;5.40;99.90;;;;;;4994236;28;20027;-70
2021/12/18 10:40:10;;;;;;;23.10;12.30;;;5.50;99.90;;;;;;4993747;28;20035;-70
2021/12/18 10:42:46;;;;;;;26.77;15.10;;;5.50;99.90;;;;;;4969515;28;20047;-71
2021/12/18 10:45:18;;;;;;;23.73;13.40;;;5.60;99.90;;;;;;4971468;28;20038;-70
2021/12/18 10:47:59;;;;;;;26.45;11.95;;;5.60;99.90;;;;;;4971297;28;20499;-71
2021/12/18 10:50:34;;;;;;;22.73;13.20;;;5.50;99.90;;;;;;4971311;28;20485;-70
2021/12/18 10:53:12;;;;;;;21.50;12.10;;;5.60;99.90;;;;;;4971427;28;20043;-70
2021/12/18 10:55:39;;;;;;;22.30;11.73;;;5.60;99.90;;;;;;4972149;28;20119;-70
2021/12/18 10:58:08;;;;;;;19.95;10.32;;;5.70;99.90;;;;;;4972188;28;20027;-69
2021/12/18 11:00:39;;;;;;;14.38;7.00;;;5.70;99.90;;;;;;4972276;28;20055;-71
2021/12/18 11:03:29;;;;;;;17.15;7.80;;;5.80;96.10;;;;;;4971414;28;20121;-70
2021/12/18 11:06:28;;;;;;;19.80;9.98;;;5.90;96.80;;;;;;4971230;28;20126;-70
2021/12/18 11:09:13;;;;;;;19.90;7.22;;;5.90;97.30;;;;;;4971196;28;20398;-70
2021/12/18 11:14:18;;;;;;;23.40;12.23;;;6.00;95.30;;;;;;4971719;28;20046;-70
2021/12/18 11:16:46;;;;;;;;;;;6.00;96.20;;;;;;4972322;28;20138;-70
2021/12/18 11:19:16;;;;;;;12.95;4.57;;;6.00;96.00;;;;;;4979308;28;19977;-69
2021/12/18 11:21:45;;;;;;;36.05;20.83;;;6.00;92.30;;;;;;4992215;28;20030;-70
2021/12/18 11:24:13;;;;;;;33.97;19.63;;;6.00;94.60;;;;;;4993190;28;20133;-70
2021/12/18 11:27:03;;;;;;;11.98;5.60;;;6.00;95.00;;;;;;4993065;28;20293;-70
2021/12/18 11:29:40;;;;;;;13.90;5.13;;;6.00;93.50;;;;;;4992441;28;20034;-71
2021/12/18 11:32:12;;;;;;;15.32;5.72;;;6.00;93.80;;;;;;4992154;28;20026;-70
2021/12/18 11:34:39;;;;;;;15.27;6.65;;;6.00;95.00;;;;;;4993337;28;20036;-70
2021/12/18 11:37:07;;;;;;;14.20;6.40;;;6.00;94.90;;;;;;4992943;28;20058;-70
2021/12/18 11:39:35;;;;;;;21.17;9.45;;;6.00;94.60;;;;;;4993244;28;20042;-70
2021/12/18 11:42:01;;;;;;;16.73;6.53;;;6.00;95.30;;;;;;4992453;28;20372;-69
2021/12/18 11:44:44;;;;;;;15.40;7.47;;;6.00;94.80;;;;;;4991964;28;20062;-69
2021/12/18 11:47:33;;;;;;;16.30;8.27;;;6.00;95.80;;;;;;4973753;28;20039;-68
2021/12/18 11:50:01;;;;;;;17.88;8.52;;;6.00;97.40;;;;;;4984032;28;20026;-68
2021/12/18 11:52:28;;;;;;;19.65;8.98;;;6.00;98.80;;;;;;4993223;28;20058;-69
2021/12/18 11:55:00;;;;;;;17.48;9.27;;;5.80;99.90;;;;;;4993006;28;20030;-70
2021/12/18 11:57:50;;;;;;;15.40;8.68;;;5.80;99.90;;;;;;4988833;28;20049;-70
2021/12/18 12:00:18;;;;;;;26.85;12.05;;;5.70;99.90;;;;;;4985441;28;20042;-70
2021/12/18 12:02:46;;;;;;;26.17;11.07;;;5.70;99.90;;;;;;4985325;28;20057;-70
2021/12/18 12:05:12;;;;;;;28.13;14.27;;;5.70;99.90;;;;;;4991602;28;20085;-70
2021/12/18 12:07:39;;;;;;;22.40;10.23;;;5.60;99.90;;;;;;4990333;28;20038;-69
2021/12/18 12:10:23;;;;;;;15.88;8.30;;;5.60;99.90;;;;;;4991320;28;20022;-68
2021/12/18 12:12:57;;;;;;;31.00;14.77;;;5.70;99.90;;;;;;4990864;28;20037;-69
2021/12/18 12:15:26;;;;;;;21.00;10.55;;;5.60;99.90;;;;;;4991654;28;20058;-70
2021/12/18 12:17:59;;;;;;;20.60;9.00;;;5.70;99.90;;;;;;4991476;28;20097;-69
2021/12/18 12:20:38;;;;;;;18.83;9.32;;;5.70;99.90;;;;;;4990277;28;20026;-70
2021/12/18 12:23:06;;;;;;;21.45;10.02;;;5.70;99.90;;;;;;4988348;28;20040;-70
2021/12/18 12:25:41;;;;;;;23.50;9.70;;;5.70;99.90;;;;;;4989909;28;20014;-70
2021/12/18 12:28:17;;;;;;;28.27;12.38;;;5.70;99.90;;;;;;4991071;28;20369;-69
2021/12/18 12:31:05;;;;;;;33.65;14.85;;;5.60;99.90;;;;;;4990873;28;20029;-68
2021/12/18 12:33:34;;;;;;;38.03;19.88;;;5.60;99.90;;;;;;4991408;28;20031;-69
2021/12/18 12:36:08;;;;;;;36.53;17.10;;;5.70;99.90;;;;;;4992212;28;20590;-69
2021/12/18 12:38:36;;;;;;;27.58;13.90;;;5.70;99.90;;;;;;4991096;28;20172;-69
2021/12/18 12:41:33;;;;;;;32.05;15.13;;;5.70;99.90;;;;;;4992333;28;20101;-71
2021/12/18 12:44:14;;;;;;;15.63;8.77;;;5.70;99.90;;;;;;4982236;28;20042;-70
2021/12/18 12:46:40;;;;;;;15.57;9.27;;;5.80;99.90;;;;;;4992258;28;20033;-70
2021/12/18 12:49:08;;;;;;;17.33;8.65;;;5.80;99.90;;;;;;4991899;28;20491;-70
2021/12/18 12:52:04;;;;;;;19.58;9.88;;;5.80;99.90;;;;;;4991880;28;20037;-70
2021/12/18 12:54:49;;;;;;;21.23;10.45;;;5.80;99.90;;;;;;4992164;28;20092;-70
2021/12/18 12:57:27;;;;;;;20.95;9.75;;;5.70;99.90;;;;;;4991380;28;20696;-70
2021/12/18 12:59:59;;;;;;;19.80;10.68;;;5.80;99.90;;;;;;4984759;28;20126;-70
2021/12/18 13:02:33;;;;;;;25.35;12.23;;;5.70;99.90;;;;;;4986899;28;20058;-69
2021/12/18 13:05:11;;;;;;;26.10;10.55;;;5.80;99.90;;;;;;4990393;28;20173;-70
2021/12/18 13:07:48;;;;;;;22.83;11.43;;;5.70;99.90;;;;;;4989879;28;20120;-70
2021/12/18 13:10:34;;;;;;;25.00;12.93;;;5.80;99.90;;;;;;4990424;28;20034;-70
2021/12/18 13:13:12;;;;;;;25.52;13.43;;;5.80;99.90;;;;;;4990199;28;20054;-70
2021/12/18 13:16:02;;;;;;;28.08;14.65;;;5.80;99.90;;;;;;4989446;28;20061;-69
2021/12/18 13:18:35;;;;;;;29.23;15.80;;;5.80;99.90;;;;;;4989895;28;20022;-70
2021/12/18 13:21:16;;;;;;;33.58;15.73;;;5.80;99.90;;;;;;4992015;28;20487;-70
2021/12/18 13:23:54;;;;;;;25.38;12.75;;;5.80;99.90;;;;;;4987955;28;20063;-69
2021/12/18 13:26:28;;;;;;;23.27;13.50;;;5.70;99.90;;;;;;4991802;28;20045;-70
2021/12/18 13:29:02;;;;;;;27.45;13.80;;;5.80;99.90;;;;;;4993599;28;20053;-69
2021/12/18 13:31:34;;;;;;;23.65;12.52;;;5.80;99.90;;;;;;4992709;28;20022;-70
2021/12/18 13:34:07;;;;;;;27.20;13.45;;;5.80;99.90;;;;;;4990597;28;20061;-69
2021/12/18 13:36:44;;;;;;;21.50;11.25;;;5.80;99.90;;;;;;4994033;28;20018;-71
2021/12/18 13:39:17;;;;;;;27.88;14.13;;;5.80;99.90;;;;;;4991129;28;20022;-70
2021/12/18 13:42:03;;;;;;;19.15;11.48;;;5.80;99.90;;;;;;4993672;28;20038;-69
2021/12/18 13:44:57;;;;;;;21.13;11.48;;;5.80;99.90;;;;;;4993204;28;20173;-71